Time;durP1;ratioP1;P1;durP2;ratioP2;P2;SDS_P1;SDS_P2;PMS_P1;PMS_P2;Temp;Humidity;BMP_temperature;BMP_pressure;BME280_temperature;BME280_humidity;BME280_pressure;Samples;Min_cycle;Max_cycle;Signal;HPM_P1;HPM_P2
2021/10/14 00:03:14;;;;;;;7.97;1.40;;;;;;;;;;10330228;28;20152;-58
2021/10/14 00:08:17;;;;;;;4.22;1.58;;;;;;;;;;10326025;28;20404;-58
2021/10/14 00:13:19;;;;;;;3.88;2.08;;;;;;;;;;10328374;28;20127;-58
2021/10/14 00:18:21;;;;;;;5.30;2.53;;;;;;;;;;10330000;28;20133;-59
2021/10/14 00:23:23;;;;;;;5.63;2.25;;;;;;;;;;10330973;28;20041;-58
2021/10/14 00:28:25;;;;;;;5.05;2.20;;;;;;;;;;10311859;28;20065;-58
2021/10/14 00:33:27;;;;;;;9.52;2.47;;;;;;;;;;10328223;28;20073;-58
2021/10/14 00:38:29;;;;;;;6.13;2.58;;;;;;;;;;10328070;28;20081;-58
2021/10/14 00:43:31;;;;;;;5.95;2.30;;;;;;;;;;10328225;28;20049;-57
2021/10/14 00:48:33;;;;;;;9.40;2.20;;;;;;;;;;10330019;28;20661;-58
2021/10/14 00:53:38;;;;;;;5.97;2.92;;;;;;;;;;10329911;28;20073;-58
2021/10/14 00:58:40;;;;;;;6.43;2.00;;;;;;;;;;10327803;28;20054;-58
2021/10/14 01:03:42;;;;;;;7.32;3.08;;;;;;;;;;10328164;28;20139;-58
2021/10/14 01:08:44;;;;;;;5.35;2.42;;;;;;;;;;10327156;28;20108;-57
2021/10/14 01:13:46;;;;;;;9.43;2.33;;;;;;;;;;10327337;28;20104;-57
2021/10/14 01:18:48;;;;;;;5.05;2.05;;;;;;;;;;10326174;28;20049;-57
2021/10/14 01:23:50;;;;;;;10.23;2.97;;;;;;;;;;10325959;28;20488;-58
2021/10/14 01:28:53;;;;;;;9.90;3.40;;;;;;;;;;10325584;28;20050;-57
2021/10/14 01:33:55;;;;;;;7.63;2.70;;;;;;;;;;10321426;28;20073;-57
2021/10/14 01:38:57;;;;;;;6.32;3.00;;;;;;;;;;10326268;28;20085;-57
2021/10/14 01:43:59;;;;;;;4.50;2.28;;;;;;;;;;10331818;28;20053;-57
2021/10/14 01:49:01;;;;;;;8.80;3.20;;;;;;;;;;10326793;28;20054;-58
2021/10/14 01:54:03;;;;;;;5.28;2.53;;;;;;;;;;10327825;28;20128;-57
2021/10/14 01:59:06;;;;;;;7.95;3.00;;;;;;;;;;10329523;28;20054;-57
2021/10/14 02:04:08;;;;;;;9.00;2.53;;;;;;;;;;10330478;28;20131;-58
2021/10/14 02:09:10;;;;;;;3.85;2.15;;;;;;;;;;10327429;28;20135;-57
2021/10/14 02:14:12;;;;;;;5.05;2.58;;;;;;;;;;10326314;28;20057;-59
2021/10/14 02:19:14;;;;;;;5.28;2.42;;;;;;;;;;10329174;28;20451;-58
2021/10/14 02:24:16;;;;;;;6.55;2.75;;;;;;;;;;10328424;28;20045;-58
2021/10/14 02:29:18;;;;;;;8.15;2.55;;;;;;;;;;10330189;28;20142;-58
2021/10/14 02:34:21;;;;;;;4.53;2.55;;;;;;;;;;10324617;28;20053;-57
2021/10/14 02:39:23;;;;;;;5.22;2.15;;;;;;;;;;10308264;28;20447;-57
2021/10/14 02:44:25;;;;;;;6.13;3.20;;;;;;;;;;10332300;28;20085;-57
2021/10/14 02:49:27;;;;;;;8.10;3.72;;;;;;;;;;10321630;28;21350;-57
2021/10/14 02:54:29;;;;;;;5.47;2.60;;;;;;;;;;10326905;28;20140;-58
2021/10/14 02:59:31;;;;;;;6.90;2.58;;;;;;;;;;10327788;28;20046;-58
2021/10/14 03:04:33;;;;;;;4.95;2.58;;;;;;;;;;10324139;28;20136;-58
2021/10/14 03:09:35;;;;;;;6.13;2.30;;;;;;;;;;10321331;28;20077;-58
2021/10/14 03:14:37;;;;;;;4.75;2.50;;;;;;;;;;10334096;28;20112;-58
2021/10/14 03:19:39;;;;;;;4.78;2.75;;;;;;;;;;10323503;28;20560;-58
2021/10/14 03:24:41;;;;;;;6.32;2.60;;;;;;;;;;10331428;28;20041;-58
2021/10/14 03:29:43;;;;;;;5.05;2.97;;;;;;;;;;10331845;28;20054;-57
2021/10/14 03:34:46;;;;;;;8.65;3.00;;;;;;;;;;10329309;28;20062;-58
2021/10/14 03:39:48;;;;;;;7.70;2.65;;;;;;;;;;10332756;28;20085;-58
2021/10/14 03:44:50;;;;;;;4.68;2.60;;;;;;;;;;10333879;28;20166;-57
2021/10/14 03:49:52;;;;;;;5.65;2.78;;;;;;;;;;10329084;28;20468;-58
2021/10/14 03:54:54;;;;;;;6.53;3.03;;;;;;;;;;10331150;28;20078;-57
2021/10/14 03:59:56;;;;;;;11.65;3.40;;;;;;;;;;10330135;28;20045;-57
2021/10/14 04:04:58;;;;;;;11.05;3.65;;;;;;;;;;10334144;28;20078;-58
2021/10/14 04:10:00;;;;;;;10.23;3.25;;;;;;;;;;10329129;28;20855;-58
2021/10/14 04:15:03;;;;;;;7.60;3.47;;;;;;;;;;10332360;28;20046;-58
2021/10/14 04:20:05;;;;;;;10.27;5.57;;;;;;;;;;10329752;28;20084;-58
2021/10/14 04:25:07;;;;;;;7.25;3.28;;;;;;;;;;10335042;28;20892;-58
2021/10/14 04:30:10;;;;;;;11.20;4.63;;;;;;;;;;10328714;28;20437;-59
2021/10/14 04:35:12;;;;;;;8.02;3.83;;;;;;;;;;10332851;28;20073;-58
2021/10/14 04:40:14;;;;;;;8.60;3.72;;;;;;;;;;10311100;28;20921;-58
2021/10/14 04:45:16;;;;;;;6.32;3.78;;;;;;;;;;10329120;28;20404;-57
2021/10/14 04:50:18;;;;;;;11.10;4.07;;;;;;;;;;10326199;28;20140;-58
2021/10/14 04:55:20;;;;;;;12.07;4.93;;;;;;;;;;10331351;28;20070;-58
2021/10/14 05:00:27;;;;;;;10.57;4.03;;;;;;;;;;10326586;28;20054;-58
2021/10/14 05:05:29;;;;;;;9.75;4.00;;;;;;;;;;10326171;28;20046;-58
2021/10/14 05:10:31;;;;;;;8.57;3.88;;;;;;;;;;10329391;28;20488;-58
2021/10/14 05:15:33;;;;;;;9.02;4.15;;;;;;;;;;10330808;28;20054;-58
2021/10/14 05:20:36;;;;;;;7.85;4.00;;;;;;;;;;10326652;28;20049;-57
2021/10/14 05:25:38;;;;;;;8.00;4.13;;;;;;;;;;10327428;28;20065;-58
2021/10/14 05:30:40;;;;;;;11.07;4.25;;;;;;;;;;10326984;28;20440;-58
2021/10/14 05:35:42;;;;;;;7.68;3.67;;;;;;;;;;10322622;28;20050;-58
2021/10/14 05:40:45;;;;;;;8.27;3.97;;;;;;;;;;10329088;28;20540;-58
2021/10/14 05:45:47;;;;;;;9.00;4.30;;;;;;;;;;10327396;28;20050;-60
2021/10/14 05:50:50;;;;;;;8.20;5.32;;;;;;;;;;10326568;28;20050;-59
2021/10/14 05:55:52;;;;;;;9.05;4.45;;;;;;;;;;10329055;28;20084;-60
2021/10/14 06:00:54;;;;;;;9.07;4.68;;;;;;;;;;10325472;28;20485;-60
2021/10/14 06:05:56;;;;;;;7.53;4.60;;;;;;;;;;10327678;28;20057;-59
2021/10/14 06:10:58;;;;;;;9.40;4.35;;;;;;;;;;10321200;28;20081;-60
2021/10/14 06:16:00;;;;;;;9.45;4.00;;;;;;;;;;10329613;28;20046;-60
2021/10/14 06:21:02;;;;;;;9.05;4.80;;;;;;;;;;10327923;28;20085;-60
2021/10/14 06:26:04;;;;;;;8.40;4.03;;;;;;;;;;10325203;28;20116;-60
2021/10/14 06:31:06;;;;;;;8.43;4.20;;;;;;;;;;10327681;28;20140;-60
2021/10/14 06:36:09;;;;;;;8.57;4.60;;;;;;;;;;10327336;28;20108;-59
2021/10/14 06:41:11;;;;;;;6.85;4.07;;;;;;;;;;10326553;28;20080;-58
2021/10/14 06:46:13;;;;;;;10.93;4.00;;;;;;;;;;10315303;28;20437;-58
2021/10/14 06:51:15;;;;;;;10.15;5.00;;;;;;;;;;10324715;28;20053;-58
2021/10/14 06:56:17;;;;;;;10.98;4.70;;;;;;;;;;10332712;28;20116;-58
2021/10/14 07:01:19;;;;;;;10.60;5.18;;;;;;;;;;10333090;28;20104;-60
2021/10/14 07:06:21;;;;;;;9.50;5.25;;;;;;;;;;10329307;28;20046;-58
2021/10/14 07:11:31;;;;;;;11.77;5.55;;;;;;;;;;10335533;28;20042;-58
2021/10/14 07:16:33;;;;;;;11.55;5.22;;;;;;;;;;10327092;28;20058;-58
2021/10/14 07:21:35;;;;;;;15.63;7.07;;;;;;;;;;10315701;28;20112;-59
2021/10/14 07:26:37;;;;;;;11.73;5.22;;;;;;;;;;10333383;28;20460;-59
2021/10/14 07:31:40;;;;;;;12.57;4.95;;;;;;;;;;10329839;28;20108;-59
2021/10/14 07:36:42;;;;;;;9.00;4.50;;;;;;;;;;10330715;28;20109;-60
2021/10/14 07:41:46;;;;;;;8.88;4.40;;;;;;;;;;10331129;28;20054;-59
2021/10/14 07:46:48;;;;;;;9.30;4.38;;;;;;;;;;10332621;28;20038;-59
2021/10/14 07:51:50;;;;;;;7.97;3.78;;;;;;;;;;10331480;28;20654;-59
2021/10/14 07:56:52;;;;;;;7.28;4.20;;;;;;;;;;10330137;28;20057;-59
2021/10/14 08:01:54;;;;;;;7.35;3.92;;;;;;;;;;10337429;28;20116;-59
2021/10/14 08:06:57;;;;;;;5.95;3.88;;;;;;;;;;10332249;28;20132;-59
2021/10/14 08:11:59;;;;;;;12.52;4.50;;;;;;;;;;10324203;28;20060;-59
2021/10/14 08:17:01;;;;;;;9.43;3.97;;;;;;;;;;10331348;28;20141;-59
2021/10/14 08:22:03;;;;;;;9.30;4.30;;;;;;;;;;10326391;28;20471;-60
2021/10/14 08:27:05;;;;;;;9.90;4.95;;;;;;;;;;10327030;28;20046;-60
2021/10/14 08:32:08;;;;;;;7.18;4.22;;;;;;;;;;10328101;28;21239;-60
2021/10/14 08:37:10;;;;;;;12.95;4.47;;;;;;;;;;10326588;28;20690;-60
2021/10/14 08:42:12;;;;;;;7.65;4.45;;;;;;;;;;10327071;28;20121;-60
2021/10/14 08:47:14;;;;;;;8.32;5.10;;;;;;;;;;10325652;28;20578;-60
2021/10/14 08:52:17;;;;;;;10.35;4.13;;;;;;;;;;10325012;28;20046;-59
2021/10/14 08:57:19;;;;;;;10.90;4.38;;;;;;;;;;10328011;28;20053;-59
2021/10/14 09:02:23;;;;;;;6.82;3.95;;;;;;;;;;10325350;28;20129;-59
2021/10/14 09:07:27;;;;;;;10.35;4.75;;;;;;;;;;10327857;28;20053;-59
2021/10/14 09:12:36;;;;;;;8.50;4.60;;;;;;;;;;10324697;28;20050;-59
2021/10/14 09:17:41;;;;;;;9.35;4.32;;;;;;;;;;10330722;28;20081;-59
2021/10/14 09:22:55;;;;;;;9.73;5.22;;;;;;;;;;10329734;28;20046;-59
2021/10/14 09:28:10;;;;;;;8.43;4.50;;;;;;;;;;10326696;28;20451;-59
2021/10/14 09:33:32;;;;;;;7.80;3.75;;;;;;;;;;10327807;28;20057;-59
2021/10/14 09:38:34;;;;;;;9.18;3.95;;;;;;;;;;10332269;28;20437;-59
2021/10/14 09:43:37;;;;;;;10.48;3.60;;;;;;;;;;10326278;28;20210;-59
2021/10/14 09:48:48;;;;;;;9.02;3.88;;;;;;;;;;10327683;28;20042;-59
2021/10/14 09:53:50;;;;;;;11.43;4.22;;;;;;;;;;10329302;28;20139;-60
2021/10/14 09:58:53;;;;;;;7.10;3.92;;;;;;;;;;10330164;28;20077;-60
2021/10/14 10:03:56;;;;;;;10.60;4.85;;;;;;;;;;10328131;28;20048;-60
2021/10/14 10:09:11;;;;;;;9.38;3.67;;;;;;;;;;10315422;28;20583;-61
2021/10/14 10:14:13;;;;;;;7.65;3.80;;;;;;;;;;10326399;28;20061;-58
2021/10/14 10:19:15;;;;;;;8.13;4.68;;;;;;;;;;10325868;28;20078;-59
2021/10/14 10:24:20;;;;;;;6.55;4.10;;;;;;;;;;10312722;28;20497;-59
2021/10/14 10:29:22;;;;;;;8.95;3.70;;;;;;;;;;10325384;28;20057;-58
2021/10/14 10:39:56;;;;;;;6.13;3.33;;;;;;;;;;10321293;28;20141;-59
2021/10/14 10:45:12;;;;;;;11.68;3.67;;;;;;;;;;10326999;28;20046;-58
2021/10/14 10:50:16;;;;;;;8.70;4.03;;;;;;;;;;10327445;28;20088;-58
2021/10/14 10:55:20;;;;;;;11.13;4.28;;;;;;;;;;10324060;28;20115;-58
2021/10/14 11:00:23;;;;;;;17.15;5.32;;;;;;;;;;10319701;28;20045;-58
2021/10/14 11:05:38;;;;;;;11.63;3.70;;;;;;;;;;10323231;28;20054;-58
2021/10/14 11:10:40;;;;;;;6.50;3.60;;;;;;;;;;10328384;28;20069;-58
2021/10/14 11:15:46;;;;;;;6.13;3.20;;;;;;;;;;10324550;28;20060;-58
2021/10/14 11:20:50;;;;;;;9.00;4.32;;;;;;;;;;10324237;28;20519;-57
2021/10/14 11:26:06;;;;;;;8.75;4.20;;;;;;;;;;10325673;28;20111;-57
2021/10/14 11:31:08;;;;;;;6.80;4.07;;;;;;;;;;10333458;28;20057;-57
2021/10/14 11:36:14;;;;;;;8.73;4.20;;;;;;;;;;10327332;28;20119;-56
2021/10/14 11:41:16;;;;;;;12.75;4.03;;;;;;;;;;10332879;28;20077;-56
2021/10/14 11:46:25;;;;;;;8.13;3.80;;;;;;;;;;10329749;28;20121;-58
2021/10/14 11:51:30;;;;;;;8.60;2.95;;;;;;;;;;10331505;28;20105;-55
2021/10/14 11:56:32;;;;;;;6.93;3.30;;;;;;;;;;10333361;28;20111;-57
2021/10/14 12:01:41;;;;;;;12.38;4.75;;;;;;;;;;10332939;28;20131;-56
2021/10/14 12:06:44;;;;;;;13.82;3.47;;;;;;;;;;10329301;28;20396;-60
2021/10/14 12:12:07;;;;;;;6.55;2.85;;;;;;;;;;10317117;28;20169;-58
2021/10/14 12:17:09;;;;;;;7.97;2.97;;;;;;;;;;10332513;28;20106;-58
2021/10/14 12:22:13;;;;;;;6.20;3.22;;;;;;;;;;10326081;28;20136;-59
2021/10/14 12:27:15;;;;;;;8.80;4.35;;;;;;;;;;10332282;28;20127;-60
2021/10/14 12:32:18;;;;;;;8.50;3.92;;;;;;;;;;10332937;28;20140;-60
2021/10/14 12:37:28;;;;;;;8.43;3.20;;;;;;;;;;10332051;28;20058;-59
2021/10/14 12:42:48;;;;;;;9.20;3.42;;;;;;;;;;10328005;28;20108;-59
2021/10/14 12:47:52;;;;;;;7.82;3.45;;;;;;;;;;10332279;28;20096;-59
2021/10/14 12:53:14;;;;;;;11.15;2.95;;;;;;;;;;10331109;28;20551;-60
2021/10/14 12:58:17;;;;;;;6.03;2.35;;;;;;;;;;10331155;28;20050;-59
2021/10/14 13:03:19;;;;;;;5.43;2.90;;;;;;;;;;10327781;28;20672;-60
2021/10/14 13:08:21;;;;;;;7.40;2.80;;;;;;;;;;10327717;28;20096;-60
2021/10/14 13:13:24;;;;;;;4.75;2.50;;;;;;;;;;10329218;28;20131;-60
2021/10/14 13:18:26;;;;;;;9.82;3.05;;;;;;;;;;10327683;28;20413;-60
2021/10/14 13:23:29;;;;;;;7.65;2.67;;;;;;;;;;10329444;28;20069;-60
2021/10/14 13:28:32;;;;;;;9.60;3.53;;;;;;;;;;10327469;28;20234;-60
2021/10/14 13:33:34;;;;;;;4.63;2.92;;;;;;;;;;10311057;28;20123;-59
2021/10/14 13:38:38;;;;;;;7.22;2.50;;;;;;;;;;10311266;28;20053;-60
2021/10/14 13:43:47;;;;;;;5.72;2.55;;;;;;;;;;10323323;28;20057;-60
2021/10/14 13:48:49;;;;;;;6.00;2.70;;;;;;;;;;10331932;28;20132;-59
2021/10/14 13:53:52;;;;;;;7.53;2.55;;;;;;;;;;10314629;28;20050;-61
2021/10/14 13:58:54;;;;;;;5.32;3.13;;;;;;;;;;10321766;28;20108;-60
2021/10/14 14:03:57;;;;;;;5.43;2.47;;;;;;;;;;10328016;28;20111;-58
2021/10/14 14:08:59;;;;;;;8.90;2.28;;;;;;;;;;10321742;28;20061;-58
2021/10/14 14:14:01;;;;;;;5.22;2.42;;;;;;;;;;10326927;28;20073;-58
2021/10/14 14:19:04;;;;;;;7.43;2.70;;;;;;;;;;10326919;28;20074;-58
2021/10/14 14:24:06;;;;;;;4.78;2.20;;;;;;;;;;10326847;28;20053;-58
2021/10/14 14:29:09;;;;;;;10.57;2.78;;;;;;;;;;10324139;28;20050;-58
2021/10/14 14:34:11;;;;;;;6.38;2.15;;;;;;;;;;10326763;28;20154;-58
2021/10/14 14:39:17;;;;;;;;;;;;;;;;;;10320447;28;20157;-58
2021/10/14 14:44:20;;;;;;;6.68;2.42;;;;;;;;;;10321377;28;20592;-58
2021/10/14 14:49:22;;;;;;;5.40;2.15;;;;;;;;;;10326315;28;20107;-58
2021/10/14 14:54:24;;;;;;;5.72;2.13;;;;;;;;;;10323613;28;20115;-60
2021/10/14 14:59:26;;;;;;;4.95;2.25;;;;;;;;;;10321127;28;20111;-60
2021/10/14 15:04:28;;;;;;;11.30;1.65;;;;;;;;;;10327960;28;20089;-60
2021/10/14 15:09:50;;;;;;;3.30;1.48;;;;;;;;;;10329422;28;20042;-60
2021/10/14 15:14:52;;;;;;;4.13;1.45;;;;;;;;;;10327241;28;20050;-60
2021/10/14 15:19:54;;;;;;;4.03;1.35;;;;;;;;;;10333620;28;20077;-60
2021/10/14 15:24:56;;;;;;;3.22;1.08;;;;;;;;;;10333369;28;20054;-60
2021/10/14 15:29:58;;;;;;;2.92;1.50;;;;;;;;;;10329136;28;20496;-60
2021/10/14 15:35:01;;;;;;;2.72;0.90;;;;;;;;;;10329749;28;20108;-60
2021/10/14 15:40:03;;;;;;;3.30;0.65;;;;;;;;;;10333683;28;20050;-60
2021/10/14 15:45:06;;;;;;;4.53;0.70;;;;;;;;;;10329515;28;20054;-60
2021/10/14 15:50:08;;;;;;;3.28;0.90;;;;;;;;;;10329371;28;20054;-60
2021/10/14 15:55:11;;;;;;;6.18;1.27;;;;;;;;;;10333891;28;20069;-60
2021/10/14 16:00:13;;;;;;;7.53;1.80;;;;;;;;;;10331174;28;20048;-60
2021/10/14 16:05:15;;;;;;;4.75;1.00;;;;;;;;;;10334308;28;20143;-60
2021/10/14 16:10:17;;;;;;;4.43;1.33;;;;;;;;;;10328618;28;20077;-60
2021/10/14 16:15:19;;;;;;;3.85;1.50;;;;;;;;;;10326257;28;20116;-60
2021/10/14 16:20:22;;;;;;;4.63;1.40;;;;;;;;;;10327186;28;20070;-58
2021/10/14 16:25:24;;;;;;;7.10;1.60;;;;;;;;;;10329042;28;20073;-59
2021/10/14 16:30:28;;;;;;;3.88;1.58;;;;;;;;;;10328639;28;20134;-59
2021/10/14 16:35:30;;;;;;;4.55;2.45;;;;;;;;;;10331952;28;20125;-60
2021/10/14 16:40:33;;;;;;;5.18;1.70;;;;;;;;;;10325886;28;20058;-60
2021/10/14 16:45:35;;;;;;;9.95;2.05;;;;;;;;;;10330984;28;20472;-59
2021/10/14 16:50:37;;;;;;;5.18;2.00;;;;;;;;;;10330367;28;20489;-60
2021/10/14 16:55:40;;;;;;;4.38;1.77;;;;;;;;;;10328630;28;20136;-59
2021/10/14 17:00:42;;;;;;;4.72;1.30;;;;;;;;;;10329548;28;20127;-57
2021/10/14 17:05:44;;;;;;;5.20;2.13;;;;;;;;;;10305358;28;20101;-57
2021/10/14 17:10:48;;;;;;;4.63;2.03;;;;;;;;;;10333786;28;20121;-58
2021/10/14 17:15:50;;;;;;;4.20;2.35;;;;;;;;;;10333324;28;20131;-57
2021/10/14 17:21:04;;;;;;;4.43;1.45;;;;;;;;;;10327140;28;20076;-58
2021/10/14 17:41:55;;;;;;;3.45;2.05;;;;;;;;;;10327441;28;20188;-61
2021/10/14 17:47:02;;;;;;;9.45;3.80;;;;;;;;;;10313420;28;20785;-58
2021/10/14 17:52:04;;;;;;;;;;;;;;;;;;10326663;28;20140;-58
2021/10/14 17:57:06;;;;;;;3.17;1.55;;;;;;;;;;10271812;28;19930;-58
2021/10/14 18:02:12;;;;;;;5.53;1.63;;;;;;;;;;10270647;28;20137;-60
2021/10/14 18:07:30;;;;;;;7.97;2.57;;;;;;;;;;10269625;28;20058;-58
2021/10/14 18:39:19;;;;;;;8.45;2.70;;;;;;;;;;10283582;28;20046;-58
2021/10/14 18:44:21;;;;;;;6.78;2.90;;;;;;;;;;10273472;28;20050;-58
2021/10/14 18:49:24;;;;;;;9.57;3.50;;;;;;;;;;10290342;28;20046;-59
2021/10/14 18:54:26;;;;;;;6.03;2.53;;;;;;;;;;10311986;28;20108;-58
2021/10/14 19:05:10;;;;;;;6.15;3.08;;;;;;;;;;10334152;28;20127;-58
2021/10/14 19:15:20;;;;;;;7.40;3.30;;;;;;;;;;10330158;28;20057;-58
2021/10/14 19:20:43;;;;;;;8.30;4.38;;;;;;;;;;10335110;28;20069;-59
2021/10/14 20:14:36;;;;;;;10.18;3.05;;;;;;;;;;10329746;28;20061;-58
2021/10/14 20:24:59;;;;;;;6.78;2.78;;;;;;;;;;10335709;28;19929;-58
2021/10/14 20:30:01;;;;;;;7.38;3.47;;;;;;;;;;10329322;28;20049;-58
2021/10/14 20:35:15;;;;;;;12.30;4.68;;;;;;;;;;10332075;28;20131;-59
2021/10/14 20:40:17;;;;;;;5.50;2.80;;;;;;;;;;10329601;28;20108;-59
2021/10/14 20:45:20;;;;;;;5.40;3.55;;;;;;;;;;10330068;28;20128;-59
2021/10/14 20:50:23;;;;;;;4.60;2.90;;;;;;;;;;10312118;28;20395;-58
2021/10/14 20:55:47;;;;;;;3.90;3.03;;;;;;;;;;10331670;28;20053;-59
2021/10/14 21:06:14;;;;;;;14.90;3.83;;;;;;;;;;10320930;28;20500;-61
2021/10/14 21:11:16;;;;;;;6.38;3.20;;;;;;;;;;10322522;28;20054;-59
2021/10/14 21:16:18;;;;;;;9.35;3.25;;;;;;;;;;10325527;28;20133;-58
2021/10/14 21:21:21;;;;;;;15.82;4.28;;;;;;;;;;10325486;28;20058;-59
2021/10/14 21:26:37;;;;;;;6.00;3.83;;;;;;;;;;10327413;28;20131;-61
2021/10/14 21:37:00;;;;;;;11.85;5.00;;;;;;;;;;10323378;28;20070;-57
2021/10/14 21:42:19;;;;;;;9.35;4.20;;;;;;;;;;10308806;28;20049;-58
2021/10/14 21:47:21;;;;;;;8.57;4.25;;;;;;;;;;10325563;28;20135;-59
2021/10/14 21:52:23;;;;;;;9.82;4.80;;;;;;;;;;10327148;28;20507;-59
2021/10/14 21:57:26;;;;;;;9.00;4.60;;;;;;;;;;10328197;28;20057;-59
2021/10/14 22:02:28;;;;;;;8.13;5.28;;;;;;;;;;10325995;28;20046;-58
2021/10/14 22:07:30;;;;;;;12.40;5.20;;;;;;;;;;10328826;28;20046;-58
2021/10/14 22:12:33;;;;;;;10.35;5.28;;;;;;;;;;10322679;28;20512;-58
2021/10/14 22:17:35;;;;;;;15.50;5.57;;;;;;;;;;10325011;28;20141;-58
2021/10/14 22:22:38;;;;;;;13.65;5.10;;;;;;;;;;10332083;28;20100;-58
2021/10/14 22:27:41;;;;;;;8.95;5.53;;;;;;;;;;10327397;28;20062;-57
2021/10/14 22:32:43;;;;;;;9.20;5.30;;;;;;;;;;10324387;28;20081;-58
2021/10/14 22:37:45;;;;;;;9.80;5.68;;;;;;;;;;10325459;28;20057;-58
2021/10/14 22:42:48;;;;;;;11.23;5.80;;;;;;;;;;10327541;28;20057;-58
2021/10/14 22:47:50;;;;;;;14.05;6.80;;;;;;;;;;10323665;28;20054;-59
2021/10/14 22:52:52;;;;;;;12.15;5.60;;;;;;;;;;10315961;28;20057;-59
2021/10/14 22:57:54;;;;;;;14.73;7.10;;;;;;;;;;10316300;28;20229;-58
2021/10/14 23:02:56;;;;;;;11.32;6.18;;;;;;;;;;10321138;28;20152;-58
2021/10/14 23:07:59;;;;;;;12.43;6.68;;;;;;;;;;10320797;28;20061;-58
2021/10/14 23:13:01;;;;;;;10.73;6.03;;;;;;;;;;10326914;28;20085;-58
2021/10/14 23:18:03;;;;;;;12.73;7.10;;;;;;;;;;10321019;28;20695;-59
2021/10/14 23:23:06;;;;;;;11.50;6.32;;;;;;;;;;10326694;28;20107;-58
2021/10/14 23:28:08;;;;;;;14.05;7.00;;;;;;;;;;10331890;28;20138;-57
2021/10/14 23:33:10;;;;;;;14.80;6.78;;;;;;;;;;10334180;28;20618;-57
2021/10/14 23:38:12;;;;;;;14.07;7.45;;;;;;;;;;10333537;28;20078;-58
2021/10/14 23:43:15;;;;;;;14.13;6.53;;;;;;;;;;10332904;28;20090;-58
2021/10/14 23:48:17;;;;;;;11.13;7.10;;;;;;;;;;10332977;28;20054;-58
2021/10/14 23:53:20;;;;;;;13.80;6.50;;;;;;;;;;10329760;28;20128;-58
2021/10/14 23:58:22;;;;;;;15.70;7.22;;;;;;;;;;10313465;28;20975;-59
